sensor_id;sensor_type;location;lat;lon;timestamp;pressure;altitude;pressure_sealevel;temperature;humidity
64876;BME280;51369;49.862;9.908;2023-04-28T00:01:22;98221.16;;;11.78;58.80
64876;BME280;51369;49.862;9.908;2023-04-28T00:03:47;98225.81;;;11.74;58.84
64876;BME280;51369;49.862;9.908;2023-04-28T00:06:13;98214.19;;;11.72;58.68
64876;BME280;51369;49.862;9.908;2023-04-28T00:08:39;98211.63;;;11.69;59.09
64876;BME280;51369;49.862;9.908;2023-04-28T00:11:09;98209.06;;;11.66;59.53
64876;BME280;51369;49.862;9.908;2023-04-28T00:13:35;98208.19;;;11.66;59.71
64876;BME280;51369;49.862;9.908;2023-04-28T00:16:00;98210.03;;;11.65;60.39
64876;BME280;51369;49.862;9.908;2023-04-28T00:18:26;98198.41;;;11.63;59.46
64876;BME280;51369;49.862;9.908;2023-04-28T00:20:51;98199.38;;;11.62;59.50
64876;BME280;51369;49.862;9.908;2023-04-28T00:23:17;98196.75;;;11.61;60.66
64876;BME280;51369;49.862;9.908;2023-04-28T00:25:42;98194.03;;;11.61;60.47
64876;BME280;51369;49.862;9.908;2023-04-28T00:28:07;98190.59;;;11.57;60.65
64876;BME280;51369;49.862;9.908;2023-04-28T00:30:33;98189.97;;;11.52;60.15
64876;BME280;51369;49.862;9.908;2023-04-28T00:32:58;98188.22;;;11.51;59.31
64876;BME280;51369;49.862;9.908;2023-04-28T00:35:23;98179.38;;;11.48;59.93
64876;BME280;51369;49.862;9.908;2023-04-28T00:37:49;98184.84;;;11.46;59.76
64876;BME280;51369;49.862;9.908;2023-04-28T00:40:14;98176.81;;;11.45;59.12
64876;BME280;51369;49.862;9.908;2023-04-28T00:42:40;98175.06;;;11.44;60.34
64876;BME280;51369;49.862;9.908;2023-04-28T00:45:06;98171.50;;;11.43;59.82
64876;BME280;51369;49.862;9.908;2023-04-28T00:47:32;98169.72;;;11.42;60.47
64876;BME280;51369;49.862;9.908;2023-04-28T00:50:00;98166.22;;;11.40;60.16
64876;BME280;51369;49.862;9.908;2023-04-28T00:52:26;98164.47;;;11.39;60.84
64876;BME280;51369;49.862;9.908;2023-04-28T00:54:52;98160.81;;;11.40;59.98
64876;BME280;51369;49.862;9.908;2023-04-28T00:57:18;98157.41;;;11.36;60.31
64876;BME280;51369;49.862;9.908;2023-04-28T00:59:43;98157.41;;;11.36;60.76
64876;BME280;51369;49.862;9.908;2023-04-28T01:02:09;98156.38;;;11.39;60.33
64876;BME280;51369;49.862;9.908;2023-04-28T01:04:41;98150.88;;;11.40;60.62
64876;BME280;51369;49.862;9.908;2023-04-28T01:07:07;98153.50;;;11.42;60.94
64876;BME280;51369;49.862;9.908;2023-04-28T01:09:32;98150.97;;;11.39;60.74
64876;BME280;51369;49.862;9.908;2023-04-28T01:11:58;98144.84;;;11.35;61.13
64876;BME280;51369;49.862;9.908;2023-04-28T01:14:36;98144.09;;;11.32;60.98
64876;BME280;51369;49.862;9.908;2023-04-28T01:17:02;98142.44;;;11.29;60.42
64876;BME280;51369;49.862;9.908;2023-04-28T01:19:28;98138.84;;;11.29;60.76
64876;BME280;51369;49.862;9.908;2023-04-28T01:21:54;98141.56;;;11.29;61.33
64876;BME280;51369;49.862;9.908;2023-04-28T01:24:20;98137.09;;;11.28;61.58
64876;BME280;51369;49.862;9.908;2023-04-28T01:26:46;98140.75;;;11.27;61.69
64876;BME280;51369;49.862;9.908;2023-04-28T01:29:12;98127.31;;;11.25;61.02
64876;BME280;51369;49.862;9.908;2023-04-28T01:31:37;98122.78;;;11.26;62.09
64876;BME280;51369;49.862;9.908;2023-04-28T01:34:03;98131.78;;;11.26;61.74
64876;BME280;51369;49.862;9.908;2023-04-28T01:36:29;98127.41;;;11.24;61.17
64876;BME280;51369;49.862;9.908;2023-04-28T01:38:55;98129.31;;;11.22;61.22
64876;BME280;51369;49.862;9.908;2023-04-28T01:41:20;98124.91;;;11.19;60.23
64876;BME280;51369;49.862;9.908;2023-04-28T01:43:46;98121.41;;;11.17;60.02
64876;BME280;51369;49.862;9.908;2023-04-28T01:46:11;98114.34;;;11.15;61.55
64876;BME280;51369;49.862;9.908;2023-04-28T01:48:37;98110.75;;;11.14;60.68
64876;BME280;51369;49.862;9.908;2023-04-28T01:51:03;98109.88;;;11.14;60.76
64876;BME280;51369;49.862;9.908;2023-04-28T01:53:29;98116.16;;;11.14;61.54
64876;BME280;51369;49.862;9.908;2023-04-28T01:55:54;98109.00;;;11.13;61.19
64876;BME280;51369;49.862;9.908;2023-04-28T01:58:20;98108.13;;;11.13;61.66
64876;BME280;51369;49.862;9.908;2023-04-28T02:00:46;98100.03;;;11.13;61.77
64876;BME280;51369;49.862;9.908;2023-04-28T02:03:12;98101.78;;;11.14;62.38
64876;BME280;51369;49.862;9.908;2023-04-28T02:05:37;98099.06;;;11.14;61.78
64876;BME280;51369;49.862;9.908;2023-04-28T02:08:03;98097.19;;;11.16;60.21
64876;BME280;51369;49.862;9.908;2023-04-28T02:10:28;98097.03;;;11.19;60.22
64876;BME280;51369;49.862;9.908;2023-04-28T02:12:54;98104.97;;;11.22;60.81
64876;BME280;51369;49.862;9.908;2023-04-28T02:15:19;98096.00;;;11.21;60.09
64876;BME280;51369;49.862;9.908;2023-04-28T02:17:45;98084.31;;;11.21;60.73
64876;BME280;51369;49.862;9.908;2023-04-28T02:20:11;98078.97;;;11.19;61.38
64876;BME280;51369;49.862;9.908;2023-04-28T02:22:38;98088.91;;;11.19;60.82
64876;BME280;51369;49.862;9.908;2023-04-28T02:25:05;98094.41;;;11.17;60.94
64876;BME280;51369;49.862;9.908;2023-04-28T02:27:31;98094.31;;;11.19;60.84
64876;BME280;51369;49.862;9.908;2023-04-28T02:29:56;98078.03;;;11.20;61.72
64876;BME280;51369;49.862;9.908;2023-04-28T02:32:21;98077.16;;;11.20;61.73
64876;BME280;51369;49.862;9.908;2023-04-28T02:34:53;98074.53;;;11.18;61.58
64876;BME280;51369;49.862;9.908;2023-04-28T02:37:20;98075.41;;;11.19;60.26
64876;BME280;51369;49.862;9.908;2023-04-28T02:39:48;98066.44;;;11.18;61.24
64876;BME280;51369;49.862;9.908;2023-04-28T02:42:13;98066.34;;;11.20;61.55
64876;BME280;51369;49.862;9.908;2023-04-28T02:44:39;98072.63;;;11.20;61.98
64876;BME280;51369;49.862;9.908;2023-04-28T02:47:05;98066.28;;;11.21;61.21
64876;BME280;51369;49.862;9.908;2023-04-28T02:49:30;98063.56;;;11.21;61.46
64876;BME280;51369;49.862;9.908;2023-04-28T02:51:56;98054.66;;;11.19;60.81
64876;BME280;51369;49.862;9.908;2023-04-28T02:54:21;98054.66;;;11.19;61.56
64876;BME280;51369;49.862;9.908;2023-04-28T02:56:55;98048.38;;;11.19;61.86
64876;BME280;51369;49.862;9.908;2023-04-28T02:59:22;98052.91;;;11.18;62.46
64876;BME280;51369;49.862;9.908;2023-04-28T03:01:47;98051.00;;;11.20;61.95
64876;BME280;51369;49.862;9.908;2023-04-28T03:04:13;98042.81;;;11.22;62.46
64876;BME280;51369;49.862;9.908;2023-04-28T03:06:39;98038.38;;;11.21;61.85
64876;BME280;51369;49.862;9.908;2023-04-28T03:09:05;98046.47;;;11.21;61.92
64876;BME280;51369;49.862;9.908;2023-04-28T03:11:31;98051.00;;;11.20;62.27
64876;BME280;51369;49.862;9.908;2023-04-28T03:13:57;98039.31;;;11.20;62.68
64876;BME280;51369;49.862;9.908;2023-04-28T03:16:22;98047.34;;;11.21;62.97
64876;BME280;51369;49.862;9.908;2023-04-28T03:18:48;98040.06;;;11.23;63.08
64876;BME280;51369;49.862;9.908;2023-04-28T03:21:13;98031.94;;;11.23;63.01
64876;BME280;51369;49.862;9.908;2023-04-28T03:23:39;98042.75;;;11.23;62.16
64876;BME280;51369;49.862;9.908;2023-04-28T03:26:04;98043.63;;;11.24;62.60
64876;BME280;51369;49.862;9.908;2023-04-28T03:28:30;98043.63;;;11.24;62.29
64876;BME280;51369;49.862;9.908;2023-04-28T03:30:57;98045.44;;;11.23;62.51
64876;BME280;51369;49.862;9.908;2023-04-28T03:33:23;98049.09;;;11.22;62.52
64876;BME280;51369;49.862;9.908;2023-04-28T03:35:49;98045.59;;;11.20;62.25
64876;BME280;51369;49.862;9.908;2023-04-28T03:38:16;98038.44;;;11.19;61.72
64876;BME280;51369;49.862;9.908;2023-04-28T03:40:41;98042.97;;;11.19;61.34
64876;BME280;51369;49.862;9.908;2023-04-28T03:43:09;98044.88;;;11.17;61.11
64876;BME280;51369;49.862;9.908;2023-04-28T03:45:40;98047.66;;;11.15;61.32
64876;BME280;51369;49.862;9.908;2023-04-28T03:48:06;98043.28;;;11.13;62.50
64876;BME280;51369;49.862;9.908;2023-04-28T03:50:32;98042.72;;;11.06;62.80
64876;BME280;51369;49.862;9.908;2023-04-28T03:52:57;98035.81;;;11.00;64.29
64876;BME280;51369;49.862;9.908;2023-04-28T03:55:23;98044.22;;;10.94;64.67
64876;BME280;51369;49.862;9.908;2023-04-28T03:57:49;98040.84;;;10.89;65.70
64876;BME280;51369;49.862;9.908;2023-04-28T04:00:16;98031.31;;;10.82;66.97
64876;BME280;51369;49.862;9.908;2023-04-28T04:02:44;98018.03;;;10.77;68.36
64876;BME280;51369;49.862;9.908;2023-04-28T04:05:09;98015.47;;;10.74;68.47
64876;BME280;51369;49.862;9.908;2023-04-28T04:07:35;98017.53;;;10.69;69.75
64876;BME280;51369;49.862;9.908;2023-04-28T04:10:00;98023.94;;;10.67;70.08
64876;BME280;51369;49.862;9.908;2023-04-28T04:12:26;98029.44;;;10.65;69.46
64876;BME280;51369;49.862;9.908;2023-04-28T04:14:51;98033.88;;;10.66;70.10
64876;BME280;51369;49.862;9.908;2023-04-28T04:17:18;98031.97;;;10.68;70.21
64876;BME280;51369;49.862;9.908;2023-04-28T04:19:44;98026.66;;;10.67;68.80
64876;BME280;51369;49.862;9.908;2023-04-28T04:22:10;98020.38;;;10.66;69.25
64876;BME280;51369;49.862;9.908;2023-04-28T04:24:35;98024.97;;;10.64;69.00
64876;BME280;51369;49.862;9.908;2023-04-28T04:27:02;98020.59;;;10.62;69.61
64876;BME280;51369;49.862;9.908;2023-04-28T04:29:32;98022.50;;;10.60;70.49
64876;BME280;51369;49.862;9.908;2023-04-28T04:31:59;98012.81;;;10.56;70.74
64876;BME280;51369;49.862;9.908;2023-04-28T04:34:25;98012.81;;;10.56;69.57
64876;BME280;51369;49.862;9.908;2023-04-28T04:36:50;98002.94;;;10.55;70.20
64876;BME280;51369;49.862;9.908;2023-04-28T04:39:16;98003.81;;;10.55;69.89
64876;BME280;51369;49.862;9.908;2023-04-28T04:41:41;98003.69;;;10.58;70.84
64876;BME280;51369;49.862;9.908;2023-04-28T04:44:31;97993.59;;;10.62;71.02
64876;BME280;51369;49.862;9.908;2023-04-28T04:46:57;97991.63;;;10.65;71.34
64876;BME280;51369;49.862;9.908;2023-04-28T04:49:23;97994.19;;;10.68;72.12
64876;BME280;51369;49.862;9.908;2023-04-28T04:51:50;97986.72;;;10.73;72.08
64876;BME280;51369;49.862;9.908;2023-04-28T04:54:15;97980.31;;;10.76;72.07
64876;BME280;51369;49.862;9.908;2023-04-28T04:56:42;97982.78;;;10.81;72.15
64876;BME280;51369;49.862;9.908;2023-04-28T04:59:08;97987.06;;;10.85;72.52
64876;BME280;51369;49.862;9.908;2023-04-28T05:02:06;97985.09;;;10.88;72.86
64876;BME280;51369;49.862;9.908;2023-04-28T05:04:31;97994.94;;;10.89;73.04
64876;BME280;51369;49.862;9.908;2023-04-28T05:06:57;97990.34;;;10.91;72.08
64876;BME280;51369;49.862;9.908;2023-04-28T05:09:22;97989.38;;;10.92;72.90
64876;BME280;51369;49.862;9.908;2023-04-28T05:11:48;97987.56;;;10.93;72.19
64876;BME280;51369;49.862;9.908;2023-04-28T05:14:15;97979.47;;;10.93;72.99
64876;BME280;51369;49.862;9.908;2023-04-28T05:16:41;97972.38;;;10.90;72.88
64876;BME280;51369;49.862;9.908;2023-04-28T05:19:29;97970.63;;;10.89;73.45
64876;BME280;51369;49.862;9.908;2023-04-28T05:21:55;97971.44;;;10.91;73.62
64876;BME280;51369;49.862;9.908;2023-04-28T05:24:22;97971.28;;;10.94;73.78
64876;BME280;51369;49.862;9.908;2023-04-28T05:26:51;97971.13;;;10.97;73.25
64876;BME280;51369;49.862;9.908;2023-04-28T05:29:18;97973.59;;;11.02;72.63
64876;BME280;51369;49.862;9.908;2023-04-28T05:31:43;97973.50;;;11.03;73.70
64876;BME280;51369;49.862;9.908;2023-04-28T05:34:09;97977.88;;;11.06;72.82
64876;BME280;51369;49.862;9.908;2023-04-28T05:36:35;97970.66;;;11.06;73.22
64876;BME280;51369;49.862;9.908;2023-04-28T05:39:01;97971.44;;;11.08;73.02
64876;BME280;51369;49.862;9.908;2023-04-28T05:41:26;97965.03;;;11.11;73.48
64876;BME280;51369;49.862;9.908;2023-04-28T05:43:53;97972.16;;;11.12;74.07
64876;BME280;51369;49.862;9.908;2023-04-28T05:46:18;97981.06;;;11.14;74.18
64876;BME280;51369;49.862;9.908;2023-04-28T05:48:44;97982.66;;;11.18;73.90
64876;BME280;51369;49.862;9.908;2023-04-28T05:51:10;97981.63;;;11.21;73.55
64876;BME280;51369;49.862;9.908;2023-04-28T05:53:36;97978.78;;;11.24;73.40
64876;BME280;51369;49.862;9.908;2023-04-28T05:56:01;97976.78;;;11.27;73.15
64876;BME280;51369;49.862;9.908;2023-04-28T05:58:28;97979.31;;;11.30;73.29
64876;BME280;51369;49.862;9.908;2023-04-28T06:00:54;97983.53;;;11.36;73.38
64876;BME280;51369;49.862;9.908;2023-04-28T06:03:19;97977.03;;;11.40;73.84
64876;BME280;51369;49.862;9.908;2023-04-28T06:05:45;97986.63;;;11.46;74.66
64876;BME280;51369;49.862;9.908;2023-04-28T06:08:12;97981.00;;;11.50;74.16
64876;BME280;51369;49.862;9.908;2023-04-28T06:10:38;97969.84;;;11.56;73.67
64876;BME280;51369;49.862;9.908;2023-04-28T06:13:03;97957.91;;;11.60;74.58
64876;BME280;51369;49.862;9.908;2023-04-28T06:15:31;97965.78;;;11.65;74.16
64876;BME280;51369;49.862;9.908;2023-04-28T06:17:57;97960.22;;;11.68;73.91
64876;BME280;51369;49.862;9.908;2023-04-28T06:20:24;97965.44;;;11.71;74.64
64876;BME280;51369;49.862;9.908;2023-04-28T06:22:49;97969.75;;;11.75;74.33
64876;BME280;51369;49.862;9.908;2023-04-28T06:25:16;97973.31;;;11.76;73.84
64876;BME280;51369;49.862;9.908;2023-04-28T06:27:45;97977.84;;;11.75;73.82
64876;BME280;51369;49.862;9.908;2023-04-28T06:30:17;97979.06;;;11.69;73.73
64876;BME280;51369;49.862;9.908;2023-04-28T06:32:44;97972.06;;;11.65;74.80
64876;BME280;51369;49.862;9.908;2023-04-28T06:35:09;97965.06;;;11.61;74.47
64876;BME280;51369;49.862;9.908;2023-04-28T06:37:35;97964.34;;;11.58;75.59
64876;BME280;51369;49.862;9.908;2023-04-28T06:40:00;97960.78;;;11.57;76.09
64876;BME280;51369;49.862;9.908;2023-04-28T06:42:26;97966.09;;;11.59;76.52
64876;BME280;51369;49.862;9.908;2023-04-28T06:44:58;97980.59;;;11.58;76.40
64876;BME280;51369;49.862;9.908;2023-04-28T06:47:26;97979.72;;;11.57;75.90
64876;BME280;51369;49.862;9.908;2023-04-28T06:49:51;97980.75;;;11.55;76.29
64876;BME280;51369;49.862;9.908;2023-04-28T06:52:17;97983.63;;;11.52;75.87
64876;BME280;51369;49.862;9.908;2023-04-28T06:54:42;98001.75;;;11.50;75.55
64876;BME280;51369;49.862;9.908;2023-04-28T06:57:07;98009.13;;;11.46;76.54
64876;BME280;51369;49.862;9.908;2023-04-28T06:59:33;98006.44;;;11.46;76.14
64876;BME280;51369;49.862;9.908;2023-04-28T07:01:59;98004.59;;;11.47;76.43
64876;BME280;51369;49.862;9.908;2023-04-28T07:04:25;97990.38;;;11.43;76.15
64876;BME280;51369;49.862;9.908;2023-04-28T07:06:51;97992.13;;;11.44;76.96
64876;BME280;51369;49.862;9.908;2023-04-28T07:09:16;97996.56;;;11.45;77.37
64876;BME280;51369;49.862;9.908;2023-04-28T07:11:43;97998.31;;;11.46;77.50
64876;BME280;51369;49.862;9.908;2023-04-28T07:14:08;98005.56;;;11.46;77.14
64876;BME280;51369;49.862;9.908;2023-04-28T07:16:34;98004.69;;;11.45;78.12
64876;BME280;51369;49.862;9.908;2023-04-28T07:19:00;98008.34;;;11.44;78.02
64876;BME280;51369;49.862;9.908;2023-04-28T07:21:25;98003.88;;;11.43;78.09
64876;BME280;51369;49.862;9.908;2023-04-28T07:23:51;97999.53;;;11.40;77.58
64876;BME280;51369;49.862;9.908;2023-04-28T07:26:16;97990.69;;;11.37;78.13
64876;BME280;51369;49.862;9.908;2023-04-28T07:28:42;97993.63;;;11.32;77.73
64876;BME280;51369;49.862;9.908;2023-04-28T07:31:08;97999.13;;;11.31;78.37
64876;BME280;51369;49.862;9.908;2023-04-28T07:33:33;97987.59;;;11.27;78.79
64876;BME280;51369;49.862;9.908;2023-04-28T07:35:58;97984.88;;;11.27;79.21
64876;BME280;51369;49.862;9.908;2023-04-28T07:38:24;97985.59;;;11.31;79.89
64876;BME280;51369;49.862;9.908;2023-04-28T07:40:49;97987.19;;;11.35;79.88
64876;BME280;51369;49.862;9.908;2023-04-28T07:43:15;97992.38;;;11.39;80.17
64876;BME280;51369;49.862;9.908;2023-04-28T07:45:41;97994.03;;;11.42;80.43
64876;BME280;51369;49.862;9.908;2023-04-28T07:48:06;97999.28;;;11.45;79.94
64876;BME280;51369;49.862;9.908;2023-04-28T07:50:32;98000.00;;;11.49;80.89
64876;BME280;51369;49.862;9.908;2023-04-28T07:52:57;98007.00;;;11.53;80.51
64876;BME280;51369;49.862;9.908;2023-04-28T07:55:23;98003.25;;;11.55;79.49
64876;BME280;51369;49.862;9.908;2023-04-28T07:57:48;97988.63;;;11.59;80.11
64876;BME280;51369;49.862;9.908;2023-04-28T08:00:15;97985.75;;;11.62;79.89
64876;BME280;51369;49.862;9.908;2023-04-28T08:02:41;97984.63;;;11.66;80.49
64876;BME280;51369;49.862;9.908;2023-04-28T08:05:07;97970.78;;;11.72;79.64
64876;BME280;51369;49.862;9.908;2023-04-28T08:07:34;97974.06;;;11.79;80.10
64876;BME280;51369;49.862;9.908;2023-04-28T08:09:59;97972.78;;;11.86;80.83
64876;BME280;51369;49.862;9.908;2023-04-28T08:12:25;97969.66;;;11.94;80.99
64876;BME280;51369;49.862;9.908;2023-04-28T08:14:51;97967.66;;;11.97;80.65
64876;BME280;51369;49.862;9.908;2023-04-28T08:17:17;97980.13;;;12.00;80.56
64876;BME280;51369;49.862;9.908;2023-04-28T08:19:42;97984.59;;;12.01;79.94
64876;BME280;51369;49.862;9.908;2023-04-28T08:22:10;97986.19;;;12.05;80.00
64876;BME280;51369;49.862;9.908;2023-04-28T08:24:36;97984.25;;;12.07;80.08
64876;BME280;51369;49.862;9.908;2023-04-28T08:27:01;97985.84;;;12.11;80.03
64876;BME280;51369;49.862;9.908;2023-04-28T08:29:28;97988.34;;;12.14;79.78
64876;BME280;51369;49.862;9.908;2023-04-28T08:31:54;97981.00;;;12.16;80.44
64876;BME280;51369;49.862;9.908;2023-04-28T08:34:19;97973.69;;;12.18;80.62
64876;BME280;51369;49.862;9.908;2023-04-28T08:36:45;97982.50;;;12.22;81.33
64876;BME280;51369;49.862;9.908;2023-04-28T08:39:10;97984.00;;;12.27;81.04
64876;BME280;51369;49.862;9.908;2023-04-28T08:41:37;97977.53;;;12.30;81.35
64876;BME280;51369;49.862;9.908;2023-04-28T08:44:07;97965.66;;;12.32;81.00
64876;BME280;51369;49.862;9.908;2023-04-28T08:46:33;97957.38;;;12.35;80.39
64876;BME280;51369;49.862;9.908;2023-04-28T08:49:00;97954.56;;;12.37;79.86
64876;BME280;51369;49.862;9.908;2023-04-28T08:51:33;97943.75;;;12.37;79.37
64876;BME280;51369;49.862;9.908;2023-04-28T08:54:02;97954.31;;;12.42;79.85
64876;BME280;51369;49.862;9.908;2023-04-28T08:56:31;97954.94;;;12.47;80.33
64876;BME280;51369;49.862;9.908;2023-04-28T08:59:01;97941.81;;;12.55;80.99
64876;BME280;51369;49.862;9.908;2023-04-28T09:01:27;97940.59;;;12.60;79.98
64876;BME280;51369;49.862;9.908;2023-04-28T09:03:53;97942.09;;;12.66;80.70
64876;BME280;51369;49.862;9.908;2023-04-28T09:06:18;97950.72;;;12.73;81.24
64876;BME280;51369;49.862;9.908;2023-04-28T09:08:44;97947.75;;;12.77;81.37
64876;BME280;51369;49.862;9.908;2023-04-28T09:11:10;97943.13;;;12.79;80.54
64876;BME280;51369;49.862;9.908;2023-04-28T09:13:38;97945.13;;;12.76;79.91
64876;BME280;51369;49.862;9.908;2023-04-28T09:16:04;97962.34;;;12.75;79.98
64876;BME280;51369;49.862;9.908;2023-04-28T09:18:30;97956.06;;;12.74;80.23
64876;BME280;51369;49.862;9.908;2023-04-28T09:21:03;97956.06;;;12.74;79.74
64876;BME280;51369;49.862;9.908;2023-04-28T09:23:29;97941.63;;;12.74;79.34
64876;BME280;51369;49.862;9.908;2023-04-28T09:26:07;97944.53;;;12.70;78.92
64876;BME280;51369;49.862;9.908;2023-04-28T09:28:34;97950.81;;;12.71;78.88
64876;BME280;51369;49.862;9.908;2023-04-28T09:31:00;97949.84;;;12.72;79.14
64876;BME280;51369;49.862;9.908;2023-04-28T09:33:26;97946.19;;;12.73;79.03
64876;BME280;51369;49.862;9.908;2023-04-28T09:35:51;97953.25;;;12.76;79.46
64876;BME280;51369;49.862;9.908;2023-04-28T09:38:18;97962.25;;;12.76;79.78
64876;BME280;51369;49.862;9.908;2023-04-28T09:41:01;97958.75;;;12.74;80.21
64876;BME280;51369;49.862;9.908;2023-04-28T09:43:31;97943.13;;;12.79;79.79
64876;BME280;51369;49.862;9.908;2023-04-28T09:46:02;97941.09;;;12.83;80.25
64876;BME280;51369;49.862;9.908;2023-04-28T09:48:35;97947.22;;;12.86;80.72
64876;BME280;51369;49.862;9.908;2023-04-28T09:51:02;97938.72;;;12.92;80.46
64876;BME280;51369;49.862;9.908;2023-04-28T09:53:29;97945.72;;;12.96;81.01
64876;BME280;51369;49.862;9.908;2023-04-28T09:55:56;97950.75;;;13.02;80.68
64876;BME280;51369;49.862;9.908;2023-04-28T09:58:23;97936.94;;;13.07;81.21
64876;BME280;51369;49.862;9.908;2023-04-28T10:00:54;97942.97;;;13.12;81.33
64876;BME280;51369;49.862;9.908;2023-04-28T10:03:22;97943.66;;;13.16;80.63
64876;BME280;51369;49.862;9.908;2023-04-28T10:05:49;97945.25;;;13.20;81.22
64876;BME280;51369;49.862;9.908;2023-04-28T10:08:16;97951.25;;;13.25;80.68
64876;BME280;51369;49.862;9.908;2023-04-28T10:10:45;97942.84;;;13.29;81.34
64876;BME280;51369;49.862;9.908;2023-04-28T10:13:10;97938.03;;;13.34;80.84
64876;BME280;51369;49.862;9.908;2023-04-28T10:15:36;97941.41;;;13.38;80.46
64876;BME280;51369;49.862;9.908;2023-04-28T10:18:02;97932.91;;;13.44;80.75
64876;BME280;51369;49.862;9.908;2023-04-28T10:20:29;97943.56;;;13.47;81.02
64876;BME280;51369;49.862;9.908;2023-04-28T10:23:30;97945.31;;;13.48;80.89
64876;BME280;51369;49.862;9.908;2023-04-28T10:25:59;97943.00;;;13.56;81.28
64876;BME280;51369;49.862;9.908;2023-04-28T10:28:25;97940.19;;;13.58;80.51
64876;BME280;51369;49.862;9.908;2023-04-28T10:31:19;97938.25;;;13.60;81.16
64876;BME280;51369;49.862;9.908;2023-04-28T10:33:46;97935.09;;;13.67;80.81
64876;BME280;51369;49.862;9.908;2023-04-28T10:36:51;97934.78;;;13.72;80.71
64876;BME280;51369;49.862;9.908;2023-04-28T10:39:17;97927.91;;;13.81;80.90
64876;BME280;51369;49.862;9.908;2023-04-28T10:41:44;97931.09;;;13.87;80.85
64876;BME280;51369;49.862;9.908;2023-04-28T10:47:04;97929.53;;;13.97;81.02
64876;BME280;51369;49.862;9.908;2023-04-28T10:55:26;97928.56;;;14.13;80.81
64876;BME280;51369;49.862;9.908;2023-04-28T11:00:53;97934.84;;;14.27;80.56
64876;BME280;51369;49.862;9.908;2023-04-28T11:06:27;97940.19;;;14.29;80.06
64876;BME280;51369;49.862;9.908;2023-04-28T11:08:55;97930.00;;;14.32;79.92
64876;BME280;51369;49.862;9.908;2023-04-28T11:11:31;97942.69;;;14.32;79.52
64876;BME280;51369;49.862;9.908;2023-04-28T11:16:54;97930.56;;;14.38;80.25
64876;BME280;51369;49.862;9.908;2023-04-28T11:19:21;97935.78;;;14.41;80.01
64876;BME280;51369;49.862;9.908;2023-04-28T11:21:49;97930.47;;;14.39;80.17
64876;BME280;51369;49.862;9.908;2023-04-28T11:24:15;97935.91;;;14.39;79.70
64876;BME280;51369;49.862;9.908;2023-04-28T11:26:42;97924.94;;;14.41;80.07
64876;BME280;51369;49.862;9.908;2023-04-28T11:29:08;97923.59;;;14.48;80.51
64876;BME280;51369;49.862;9.908;2023-04-28T11:31:35;97917.34;;;14.60;80.99
64876;BME280;51369;49.862;9.908;2023-04-28T11:34:09;97918.28;;;14.73;81.68
64876;BME280;51369;49.862;9.908;2023-04-28T11:36:41;97912.13;;;14.84;81.45
64876;BME280;51369;49.862;9.908;2023-04-28T11:39:11;97917.41;;;15.00;80.82
64876;BME280;51369;49.862;9.908;2023-04-28T11:41:39;97903.44;;;15.18;80.30
64876;BME280;51369;49.862;9.908;2023-04-28T11:44:15;97913.25;;;15.34;79.33
64876;BME280;51369;49.862;9.908;2023-04-28T11:49:11;97907.97;;;15.57;79.24
64876;BME280;51369;49.862;9.908;2023-04-28T11:51:37;97911.00;;;15.66;79.16
64876;BME280;51369;49.862;9.908;2023-04-28T11:54:06;97906.84;;;15.73;79.23
64876;BME280;51369;49.862;9.908;2023-04-28T11:56:40;97906.97;;;15.84;79.86
64876;BME280;51369;49.862;9.908;2023-04-28T11:59:10;97901.97;;;15.90;80.27
64876;BME280;51369;49.862;9.908;2023-04-28T12:01:50;97909.56;;;15.98;79.59
64876;BME280;51369;49.862;9.908;2023-04-28T12:04:32;97900.97;;;16.04;78.96
64876;BME280;51369;49.862;9.908;2023-04-28T12:09:38;97908.78;;;16.21;78.47
64876;BME280;51369;49.862;9.908;2023-04-28T12:12:06;97907.47;;;16.27;78.21
64876;BME280;51369;49.862;9.908;2023-04-28T12:14:52;97919.75;;;16.33;77.57
64876;BME280;51369;49.862;9.908;2023-04-28T12:17:27;97916.25;;;16.43;78.21
64876;BME280;51369;49.862;9.908;2023-04-28T12:19:54;97922.88;;;16.52;78.19
64876;BME280;51369;49.862;9.908;2023-04-28T12:22:20;97913.50;;;16.56;77.76
64876;BME280;51369;49.862;9.908;2023-04-28T12:24:45;97912.16;;;16.62;77.08
64876;BME280;51369;49.862;9.908;2023-04-28T12:27:15;97905.19;;;16.70;77.56
64876;BME280;51369;49.862;9.908;2023-04-28T12:29:41;97896.97;;;16.83;77.85
64876;BME280;51369;49.862;9.908;2023-04-28T12:32:09;97899.63;;;16.96;76.88
64876;BME280;51369;49.862;9.908;2023-04-28T12:34:35;97899.81;;;17.05;76.46
64876;BME280;51369;49.862;9.908;2023-04-28T12:37:02;97908.38;;;17.12;76.39
64876;BME280;51369;49.862;9.908;2023-04-28T12:39:28;97917.94;;;17.17;75.77
64876;BME280;51369;49.862;9.908;2023-04-28T12:41:53;97912.16;;;17.22;75.41
64876;BME280;51369;49.862;9.908;2023-04-28T12:44:24;97910.28;;;17.34;75.75
64876;BME280;51369;49.862;9.908;2023-04-28T12:46:50;97919.91;;;17.50;74.84
64876;BME280;51369;49.862;9.908;2023-04-28T12:49:16;97914.03;;;17.68;74.47
64876;BME280;51369;49.862;9.908;2023-04-28T12:51:41;97913.94;;;17.80;74.23
64876;BME280;51369;49.862;9.908;2023-04-28T12:54:08;97918.66;;;17.89;73.56
64876;BME280;51369;49.862;9.908;2023-04-28T12:56:33;97920.28;;;18.03;73.63
64876;BME280;51369;49.862;9.908;2023-04-28T12:58:59;97917.31;;;18.17;73.22
64876;BME280;51369;49.862;9.908;2023-04-28T13:01:27;97916.56;;;18.27;72.64
64876;BME280;51369;49.862;9.908;2023-04-28T13:03:54;97919.94;;;18.30;71.46
64876;BME280;51369;49.862;9.908;2023-04-28T13:06:19;97921.78;;;18.30;71.32
64876;BME280;51369;49.862;9.908;2023-04-28T13:08:44;97918.94;;;18.31;72.04
64876;BME280;51369;49.862;9.908;2023-04-28T13:11:10;97921.28;;;18.36;72.09
64876;BME280;51369;49.862;9.908;2023-04-28T13:13:35;97913.59;;;18.41;71.60
64876;BME280;51369;49.862;9.908;2023-04-28T13:16:01;97914.94;;;18.46;71.86
64876;BME280;51369;49.862;9.908;2023-04-28T13:18:29;97915.56;;;18.50;71.27
64876;BME280;51369;49.862;9.908;2023-04-28T13:20:54;97904.38;;;18.53;70.80
64876;BME280;51369;49.862;9.908;2023-04-28T13:23:20;97905.13;;;18.55;70.78